createdAt,value
2023-04-06T00:03:36.586Z,7.25
2023-04-06T00:07:38.399Z,7.60
2023-04-06T00:11:40.249Z,7.40
2023-04-06T00:15:42.000Z,7.00
2023-04-06T00:19:43.722Z,7.53
2023-04-06T00:23:45.560Z,7.32
2023-04-06T00:27:47.324Z,7.15
2023-04-06T00:31:49.078Z,6.75
2023-04-06T00:35:51.434Z,7.07
2023-04-06T00:39:53.271Z,7.78
2023-04-06T00:43:55.808Z,7.12
2023-04-06T00:47:57.867Z,7.93
2023-04-06T00:51:59.627Z,6.90
2023-04-06T00:56:01.365Z,7.35
2023-04-06T01:00:04.336Z,7.75
2023-04-06T01:04:06.190Z,8.48
2023-04-06T01:08:08.705Z,7.90
2023-04-06T01:12:10.576Z,7.55
2023-04-06T01:16:13.121Z,7.30
2023-04-06T01:20:15.362Z,6.95
2023-04-06T01:24:17.211Z,7.90
2023-04-06T01:28:19.194Z,8.07
2023-04-06T01:32:21.812Z,7.75
2023-04-06T01:36:23.655Z,7.90
2023-04-06T01:40:25.465Z,7.93
2023-04-06T01:44:27.282Z,8.07
2023-04-06T01:48:29.074Z,7.97
2023-04-06T01:52:30.907Z,7.82
2023-04-06T01:56:32.647Z,8.77
2023-04-06T02:00:34.465Z,7.50
2023-04-06T02:04:36.323Z,7.95
2023-04-06T02:08:38.063Z,7.95
2023-04-06T02:12:40.140Z,7.53
2023-04-06T02:16:42.181Z,7.93
2023-04-06T02:20:43.993Z,8.35
2023-04-06T02:24:46.319Z,8.07
2023-04-06T02:28:48.108Z,8.45
2023-04-06T02:32:49.947Z,7.22
2023-04-06T02:36:51.798Z,7.82
2023-04-06T02:40:53.559Z,8.52
2023-04-06T02:44:55.536Z,8.85
2023-04-06T02:48:57.278Z,8.20
2023-04-06T02:52:59.012Z,8.82
2023-04-06T02:57:00.763Z,9.50
2023-04-06T03:01:02.642Z,8.93
2023-04-06T03:05:04.825Z,8.68
2023-04-06T03:09:07.784Z,9.30
2023-04-06T03:13:09.893Z,9.35
2023-04-06T03:17:11.648Z,9.32
2023-04-06T03:21:14.186Z,9.20
2023-04-06T03:25:16.188Z,9.95
2023-04-06T03:29:17.954Z,9.88
2023-04-06T03:33:19.750Z,10.25
2023-04-06T03:37:21.651Z,9.20
2023-04-06T03:41:23.391Z,9.30
2023-04-06T03:45:25.210Z,9.82
2023-04-06T03:49:26.995Z,9.52
2023-04-06T03:53:28.770Z,8.50
2023-04-06T03:57:30.656Z,9.95
2023-04-06T04:01:32.473Z,9.40
2023-04-06T04:05:34.262Z,9.30
2023-04-06T04:09:36.300Z,9.68
2023-04-06T04:13:38.073Z,9.80
2023-04-06T04:17:39.868Z,9.02
2023-04-06T04:21:46.580Z,9.45
2023-04-06T04:25:49.632Z,8.88
2023-04-06T04:29:53.041Z,9.73
2023-04-06T04:33:54.904Z,9.45
2023-04-06T04:37:57.118Z,8.60
2023-04-06T04:41:58.911Z,8.40
2023-04-06T04:46:00.740Z,8.80
2023-04-06T04:50:02.508Z,9.32
2023-04-06T04:54:04.340Z,9.95
2023-04-06T04:58:06.229Z,10.45
2023-04-06T05:02:08.116Z,9.50
2023-04-06T05:06:12.201Z,9.73
2023-04-06T05:10:15.506Z,10.00
2023-04-06T05:14:18.242Z,13.45
2023-04-06T05:18:20.051Z,10.20
2023-04-06T05:22:22.024Z,9.60
2023-04-06T05:26:23.751Z,10.57
2023-04-06T05:30:25.764Z,9.15
2023-04-06T05:34:27.595Z,8.88
2023-04-06T05:38:29.463Z,8.70
2023-04-06T05:42:39.022Z,9.00
2023-04-06T05:46:41.040Z,9.05
2023-04-06T05:50:42.919Z,8.90
2023-04-06T05:54:44.690Z,9.30
2023-04-06T05:58:46.778Z,8.70
2023-04-06T06:02:48.691Z,8.68
2023-04-06T06:06:50.791Z,8.15
2023-04-06T06:10:52.559Z,8.48
2023-04-06T06:14:54.976Z,8.50
2023-04-06T06:18:56.877Z,7.95
2023-04-06T06:22:58.686Z,8.40
2023-04-06T06:27:00.503Z,7.00
2023-04-06T06:31:02.304Z,6.50
2023-04-06T06:35:04.232Z,6.30
2023-04-06T06:39:06.482Z,6.65
2023-04-06T06:43:08.562Z,5.93
2023-04-06T06:47:10.363Z,5.80
2023-04-06T06:51:12.678Z,6.15
2023-04-06T06:55:14.502Z,5.60
2023-04-06T06:59:17.100Z,5.40
2023-04-06T07:03:18.956Z,5.50
2023-04-06T07:07:20.917Z,5.43
2023-04-06T07:11:22.650Z,5.50
2023-04-06T07:15:24.403Z,6.28
2023-04-06T07:19:26.219Z,6.55
2023-04-06T07:23:27.944Z,6.18
2023-04-06T07:27:29.640Z,6.30
2023-04-06T07:31:31.424Z,6.07
2023-04-06T07:35:33.561Z,5.95
2023-04-06T07:39:35.790Z,6.30
2023-04-06T07:43:37.597Z,6.03
2023-04-06T07:47:39.585Z,6.18
2023-04-06T07:51:41.455Z,5.97
2023-04-06T07:55:43.208Z,6.07
2023-04-06T07:59:45.218Z,6.20
2023-04-06T08:03:47.826Z,6.72
2023-04-06T08:07:49.909Z,6.30
2023-04-06T08:11:51.734Z,6.97
2023-04-06T08:15:54.583Z,7.12
2023-04-06T08:19:56.689Z,7.85
2023-04-06T08:23:58.481Z,7.25
2023-04-06T08:28:00.367Z,7.68
2023-04-06T08:32:05.908Z,7.20
2023-04-06T08:36:13.040Z,7.28
2023-04-06T08:40:15.098Z,6.78
2023-04-06T08:44:17.954Z,7.37
2023-04-06T08:48:20.237Z,8.57
2023-04-06T08:52:22.114Z,8.05
2023-04-06T08:56:24.986Z,7.45
2023-04-06T09:00:27.137Z,7.70
2023-04-06T09:04:28.963Z,7.57
2023-04-06T09:08:30.946Z,7.40
2023-04-06T09:12:33.594Z,8.40
2023-04-06T09:16:42.064Z,8.07
2023-04-06T09:20:43.823Z,8.98
2023-04-06T09:24:55.254Z,8.82
2023-04-06T09:29:02.177Z,9.20
2023-04-06T09:33:04.168Z,9.98
2023-04-06T09:37:15.823Z,10.70
2023-04-06T09:41:28.993Z,10.40
2023-04-06T09:45:31.756Z,10.40
2023-04-06T09:49:34.515Z,10.25
2023-04-06T09:53:39.856Z,10.40
2023-04-06T09:57:48.680Z,10.82
2023-04-06T10:01:53.160Z,10.38
2023-04-06T10:06:04.302Z,9.82
2023-04-06T10:10:06.723Z,9.52
2023-04-06T10:14:09.204Z,10.60
2023-04-06T10:18:11.599Z,11.00
2023-04-06T10:22:25.149Z,10.80
2023-04-06T10:26:27.245Z,11.88
2023-04-06T10:30:30.025Z,10.90
2023-04-06T10:34:37.676Z,12.05
2023-04-06T10:38:41.962Z,10.60
2023-04-06T10:42:43.947Z,11.05
2023-04-06T10:46:57.581Z,10.80
2023-04-06T10:50:59.412Z,11.27
2023-04-06T10:55:02.249Z,11.60
2023-04-06T10:59:04.110Z,12.25
2023-04-06T11:03:06.073Z,12.13
2023-04-06T11:07:08.360Z,12.00
2023-04-06T11:11:16.796Z,11.68
2023-04-06T11:15:18.596Z,11.93
2023-04-06T11:19:20.363Z,12.48
2023-04-06T11:23:28.761Z,12.25
2023-04-06T11:27:32.327Z,12.25
2023-04-06T11:31:47.784Z,12.00
2023-04-06T11:35:49.944Z,12.27
2023-04-06T11:39:55.288Z,12.20
2023-04-06T11:43:57.467Z,11.90
2023-04-06T11:48:01.317Z,12.77
2023-04-06T11:52:03.373Z,12.57
2023-04-06T11:56:05.331Z,12.52
2023-04-06T12:00:09.099Z,12.95
2023-04-06T12:04:11.154Z,12.63
2023-04-06T12:08:12.981Z,13.65
2023-04-06T12:12:14.703Z,11.38
2023-04-06T12:16:16.514Z,12.57
2023-04-06T12:20:26.061Z,11.88
2023-04-06T12:24:29.705Z,12.55
2023-04-06T12:28:31.949Z,11.98
2023-04-06T12:32:33.713Z,12.13
2023-04-06T12:36:35.934Z,11.85
2023-04-06T12:40:41.257Z,10.70
2023-04-06T12:44:43.710Z,10.18
2023-04-06T12:48:45.541Z,10.13
2023-04-06T12:52:48.274Z,9.25
2023-04-06T12:56:49.999Z,10.27
2023-04-06T13:00:51.821Z,10.65
2023-04-06T13:04:53.563Z,10.05
2023-04-06T13:08:56.557Z,9.07
2023-04-06T13:12:58.312Z,10.70
2023-04-06T13:17:01.087Z,9.95
2023-04-06T13:21:03.974Z,8.95
2023-04-06T13:25:05.948Z,8.18
2023-04-06T13:29:07.847Z,8.48
2023-04-06T13:33:09.609Z,8.20
2023-04-06T13:37:14.152Z,8.20
2023-04-06T13:41:23.619Z,8.50
2023-04-06T13:45:25.474Z,7.43
2023-04-06T13:49:27.666Z,7.97
2023-04-06T13:53:29.397Z,7.97
2023-04-06T13:57:31.417Z,7.43
2023-04-06T14:01:33.190Z,7.05
2023-04-06T14:05:34.942Z,7.15
2023-04-06T14:09:36.713Z,7.30
2023-04-06T14:13:38.906Z,7.00
2023-04-06T14:17:41.246Z,6.45
2023-04-06T14:21:44.585Z,6.87
2023-04-06T14:25:47.044Z,7.25
2023-04-06T14:29:48.725Z,6.65
2023-04-06T14:33:50.607Z,7.00
2023-04-06T14:37:52.482Z,6.15
2023-04-06T14:41:54.248Z,6.50
2023-04-06T14:45:56.148Z,5.57
2023-04-06T14:49:58.495Z,6.35
2023-04-06T14:54:01.754Z,7.03
2023-04-06T14:58:03.525Z,6.65
2023-04-06T15:02:05.523Z,7.80
2023-04-06T15:06:14.306Z,6.97
2023-04-06T15:10:16.286Z,7.12
2023-04-06T15:14:17.988Z,8.02
2023-04-06T15:18:19.717Z,7.57
2023-04-06T15:22:21.456Z,7.28
2023-04-06T15:26:23.327Z,7.57
2023-04-06T15:30:25.152Z,6.15
2023-04-06T15:34:31.035Z,5.85
2023-04-06T15:38:33.613Z,5.60
2023-04-06T15:42:35.317Z,5.12
2023-04-06T15:46:36.997Z,5.32
2023-04-06T15:50:38.855Z,5.57
2023-04-06T15:54:41.119Z,6.12
2023-04-06T15:58:42.850Z,5.97
2023-04-06T16:02:44.799Z,5.65
2023-04-06T16:06:46.633Z,5.95
2023-04-06T16:10:49.590Z,5.37
2023-04-06T16:14:51.320Z,6.72
2023-04-06T16:18:53.103Z,6.70
2023-04-06T16:22:54.837Z,6.18
2023-04-06T16:26:57.413Z,7.22
2023-04-06T16:30:59.115Z,7.40
2023-04-06T16:35:00.913Z,7.22
2023-04-06T16:39:03.007Z,7.75
2023-04-06T16:43:05.117Z,7.80
2023-04-06T16:47:07.090Z,8.63
2023-04-06T16:51:09.734Z,7.30
2023-04-06T16:55:11.826Z,8.27
2023-04-06T16:59:13.697Z,9.00
2023-04-06T17:03:15.647Z,7.57
2023-04-06T17:07:17.566Z,7.47
2023-04-06T17:11:25.521Z,7.72
2023-04-06T17:15:31.616Z,8.05
2023-04-06T17:19:33.532Z,7.62
2023-04-06T17:23:35.359Z,9.15
2023-04-06T17:27:38.065Z,8.55
2023-04-06T17:31:39.795Z,9.45
2023-04-06T17:35:42.337Z,9.93
2023-04-06T17:39:44.434Z,9.82
2023-04-06T17:43:46.366Z,9.57
2023-04-06T17:47:48.740Z,10.82
2023-04-06T17:51:50.565Z,9.85
2023-04-06T17:55:52.684Z,10.32
2023-04-06T17:59:54.507Z,11.77
2023-04-06T18:03:56.221Z,10.32
2023-04-06T18:07:58.034Z,11.25
2023-04-06T18:11:59.761Z,10.95
2023-04-06T18:16:02.104Z,11.63
2023-04-06T18:20:04.383Z,10.48
2023-04-06T18:24:06.745Z,10.90
2023-04-06T18:28:09.263Z,11.25
2023-04-06T18:32:11.106Z,10.48
2023-04-06T18:36:14.307Z,10.90
2023-04-06T18:40:35.379Z,11.43
2023-04-06T18:44:37.108Z,11.20
2023-04-06T18:48:39.174Z,10.88
2023-04-06T18:52:41.713Z,11.68
2023-04-06T18:56:43.422Z,10.98
2023-04-06T19:00:45.228Z,12.07
2023-04-06T19:04:47.256Z,12.75
2023-04-06T19:08:49.567Z,12.57
2023-04-06T19:12:51.273Z,12.05
2023-04-06T19:16:53.210Z,12.90
2023-04-06T19:20:55.103Z,12.13
2023-04-06T19:24:57.088Z,12.25
2023-04-06T19:28:58.876Z,12.85
2023-04-06T19:33:00.767Z,13.32
2023-04-06T19:37:02.549Z,13.07
2023-04-06T19:41:04.615Z,12.00
2023-04-06T19:45:07.291Z,11.35
2023-04-06T19:49:08.987Z,11.23
2023-04-06T19:53:10.729Z,11.63
2023-04-06T19:57:13.164Z,11.68
2023-04-06T20:01:15.342Z,11.75
2023-04-06T20:05:17.467Z,11.43
2023-04-06T20:09:19.315Z,12.15
2023-04-06T20:13:21.427Z,12.13
2023-04-06T20:17:23.808Z,11.40
2023-04-06T20:21:26.008Z,11.90
2023-04-06T20:25:27.791Z,11.05
2023-04-06T20:29:29.484Z,11.18
2023-04-06T20:33:31.252Z,11.38
2023-04-06T20:37:34.866Z,11.20
2023-04-06T20:41:36.616Z,10.88
2023-04-06T20:45:38.374Z,11.50
2023-04-06T20:49:40.165Z,10.52
2023-04-06T20:53:41.847Z,10.45
2023-04-06T20:57:45.043Z,11.93
2023-04-06T21:01:47.813Z,11.63
2023-04-06T21:05:55.429Z,11.63
2023-04-06T21:09:57.208Z,11.32
2023-04-06T21:13:58.859Z,11.93
2023-04-06T21:18:00.558Z,11.40
2023-04-06T21:22:02.255Z,11.77
2023-04-06T21:26:04.074Z,12.18
2023-04-06T21:30:06.532Z,11.63
2023-04-06T21:34:10.005Z,10.55
2023-04-06T21:38:11.842Z,11.18
2023-04-06T21:42:13.552Z,11.50
2023-04-06T21:46:15.252Z,11.70
2023-04-06T21:50:18.089Z,11.32
2023-04-06T21:54:19.963Z,11.10
2023-04-06T21:58:22.437Z,10.45
2023-04-06T22:02:24.291Z,11.32
2023-04-06T22:06:26.169Z,11.63
2023-04-06T22:10:29.126Z,11.00
2023-04-06T22:14:31.454Z,12.43
2023-04-06T22:18:33.640Z,12.00
2023-04-06T22:22:35.409Z,11.55
2023-04-06T22:26:37.103Z,11.80
2023-04-06T22:30:38.833Z,11.32
2023-04-06T22:34:40.549Z,12.25
2023-04-06T22:38:44.255Z,12.07
2023-04-06T22:42:45.942Z,12.37
2023-04-06T22:46:47.644Z,12.90
2023-04-06T22:50:49.360Z,12.93
2023-04-06T22:54:51.142Z,14.35
2023-04-06T22:58:52.905Z,16.15
2023-04-06T23:02:54.742Z,16.08
2023-04-06T23:06:56.580Z,14.98
2023-04-06T23:10:58.373Z,17.05
2023-04-06T23:15:00.035Z,16.65
2023-04-06T23:19:01.700Z,16.40
2023-04-06T23:23:03.396Z,17.02
2023-04-06T23:27:05.066Z,18.60
2023-04-06T23:31:06.860Z,18.12
2023-04-06T23:35:08.945Z,18.00
2023-04-06T23:39:10.691Z,18.00
2023-04-06T23:43:12.397Z,18.05
2023-04-06T23:47:14.472Z,18.45
2023-04-06T23:51:16.181Z,19.30
2023-04-06T23:55:17.855Z,18.65
2023-04-06T23:59:19.538Z,18.30
